Time;durP1;ratioP1;P1;durP2;ratioP2;P2;SDS_P1;SDS_P2;PMS_P1;PMS_P2;Temp;Humidity;BMP_temperature;BMP_pressure;BME280_temperature;BME280_humidity;BME280_pressure;Samples;Min_cycle;Max_cycle;Signal;HPM_P1;HPM_P2
2022/06/17 00:01:10;;;;;;;3.42;1.10;;;;;;;14.11;80.82;101490.50;5210342;28;20029;-74
2022/06/17 00:03:40;;;;;;;2.15;0.90;;;;;;;14.18;81.15;101493.81;5231887;28;20082;-73
2022/06/17 00:06:14;;;;;;;2.05;0.82;;;;;;;14.08;80.32;101497.66;5210142;28;20029;-72
2022/06/17 00:08:49;;;;;;;3.28;1.10;;;;;;;13.71;83.24;101499.84;5239054;28;20025;-73
2022/06/17 00:11:24;;;;;;;1.95;1.20;;;;;;;13.68;81.97;101503.41;5193563;28;20032;-74
2022/06/17 00:13:55;;;;;;;4.38;1.30;;;;;;;13.49;84.74;101501.44;5228203;28;20028;-73
2022/06/17 00:16:27;;;;;;;2.30;1.23;;;;;;;13.32;85.69;101495.88;5234286;28;20037;-73
2022/06/17 00:18:57;;;;;;;1.83;1.02;;;;;;;13.13;87.29;101498.25;5214297;28;20474;-73
2022/06/17 00:21:35;;;;;;;3.22;1.00;;;;;;;13.65;83.71;101500.03;5237054;28;20099;-73
2022/06/17 00:24:16;;;;;;;1.67;1.00;;;;;;;13.80;82.25;101495.13;5209839;28;20036;-73
2022/06/17 00:26:48;;;;;;;2.13;1.08;;;;;;;13.67;83.02;101496.44;5227502;28;20239;-72
2022/06/17 00:29:21;;;;;;;3.97;1.10;;;;;;;13.49;83.54;101478.69;5198744;28;20037;-73
2022/06/17 00:31:52;;;;;;;4.10;1.08;;;;;;;13.43;83.28;101476.22;5219914;28;20035;-73
2022/06/17 00:34:26;;;;;;;4.32;1.30;;;;;;;13.04;86.53;101487.16;5227588;28;20029;-73
2022/06/17 00:36:59;;;;;;;1.65;0.90;;;;;;;12.89;87.01;101498.09;5219193;28;20029;-72
2022/06/17 00:39:32;;;;;;;2.28;1.15;;;;;;;13.15;85.39;101496.41;5226839;28;20082;-73
2022/06/17 00:42:10;;;;;;;2.28;1.20;;;;;;;12.81;86.74;101481.72;5234780;28;20029;-72
2022/06/17 00:44:53;;;;;;;2.83;1.10;;;;;;;12.71;88.49;101484.66;5247813;28;20027;-73
2022/06/17 00:47:33;;;;;;;2.35;1.15;;;;;;;12.93;86.11;101478.75;5209090;28;20025;-73
2022/06/17 00:50:23;;;;;;;2.15;1.10;;;;;;;12.62;87.73;101477.91;5238975;28;20021;-73
2022/06/17 00:53:09;;;;;;;4.22;1.08;;;;;;;12.63;89.17;101477.00;5244123;28;20455;-71
2022/06/17 00:55:45;;;;;;;4.13;1.20;;;;;;;12.21;90.23;101473.00;5233568;28;20079;-74
2022/06/17 00:58:25;;;;;;;3.10;1.20;;;;;;;12.35;89.68;101480.47;5226034;28;20505;-73
2022/06/17 01:00:58;;;;;;;3.88;1.27;;;;;;;12.15;91.49;101481.03;5228739;28;20040;-73
2022/06/17 01:03:34;;;;;;;2.90;1.30;;;;;;;12.24;90.75;101487.78;5236299;28;20512;-73
2022/06/17 01:06:08;;;;;;;;;;;;;;;12.14;90.91;101500.28;5226704;28;20485;-72
2022/06/17 01:11:40;;;;;;;2.80;1.10;;;;;;;12.47;90.40;101514.22;5235349;28;20392;-73
2022/06/17 01:14:14;;;;;;;2.22;1.23;;;;;;;12.51;89.71;101513.22;5243109;28;20028;-72
2022/06/17 01:16:46;;;;;;;2.42;1.15;;;;;;;12.73;88.78;101512.56;5238763;28;20402;-73
2022/06/17 01:19:43;;;;;;;2.38;1.35;;;;;;;12.69;87.01;101504.84;5241668;28;20033;-74
2022/06/17 01:22:26;;;;;;;3.33;1.30;;;;;;;12.37;89.88;101497.91;5243678;28;20505;-73
2022/06/17 01:25:01;;;;;;;8.15;1.30;;;;;;;12.16;91.42;101514.19;5244787;28;20371;-73
2022/06/17 01:27:36;;;;;;;3.30;1.10;;;;;;;12.33;90.00;101501.47;5237290;28;20035;-73
2022/06/17 01:30:09;;;;;;;3.70;1.20;;;;;;;12.29;89.15;101499.84;5226981;28;20397;-73
2022/06/17 01:32:48;;;;;;;3.25;1.20;;;;;;;12.23;89.44;101492.16;5225590;28;20522;-73
2022/06/17 01:35:22;;;;;;;2.53;1.20;;;;;;;12.35;88.00;101485.72;5233050;28;20033;-74
2022/06/17 01:37:53;;;;;;;2.17;1.30;;;;;;;11.89;90.04;101493.97;5227794;28;20028;-74
2022/06/17 01:40:27;;;;;;;2.88;1.20;;;;;;;11.82;89.73;101497.63;5240567;28;20090;-74
2022/06/17 01:43:02;;;;;;;1.65;1.10;;;;;;;11.59;91.00;101493.91;5225819;28;20033;-73
2022/06/17 01:45:37;;;;;;;1.30;1.00;;;;;;;11.39;90.20;101486.50;5223005;28;20491;-74
2022/06/17 01:48:09;;;;;;;2.75;1.20;;;;;;;11.21;93.65;101493.91;5229901;28;20032;-72
2022/06/17 01:50:43;;;;;;;2.15;1.20;;;;;;;11.41;91.56;101494.34;5229938;28;20538;-74
2022/06/17 01:53:18;;;;;;;2.13;1.30;;;;;;;11.20;92.49;101510.53;5207857;28;20406;-74
2022/06/17 01:55:53;;;;;;;3.15;1.40;;;;;;;11.19;93.74;101525.38;5233634;28;20103;-73
2022/06/17 01:58:29;;;;;;;3.28;1.20;;;;;;;11.14;94.63;101524.59;5242168;28;20024;-73
2022/06/17 02:01:02;;;;;;;2.65;1.33;;;;;;;11.36;94.58;101522.34;5230318;28;20064;-73
2022/06/17 02:03:36;;;;;;;2.13;1.13;;;;;;;11.61;93.24;101521.75;5223352;28;20029;-73
2022/06/17 02:06:15;;;;;;;3.03;1.40;;;;;;;11.53;92.71;101520.19;5212382;28;20028;-73
2022/06/17 02:08:45;;;;;;;2.33;1.10;;;;;;;11.32;94.26;101526.81;5211980;28;20047;-73
2022/06/17 02:11:16;;;;;;;2.80;1.13;;;;;;;11.46;92.66;101539.56;5228251;28;20017;-73
2022/06/17 02:13:47;;;;;;;5.32;1.40;;;;;;;11.88;88.63;101538.53;5233613;28;20040;-74
2022/06/17 02:16:18;;;;;;;2.03;1.10;;;;;;;11.97;86.89;101539.16;5238909;28;20380;-73
2022/06/17 02:18:49;;;;;;;3.05;1.25;;;;;;;11.96;87.44;101547.09;5232588;28;20117;-74
2022/06/17 02:21:42;;;;;;;1.90;1.15;;;;;;;12.13;87.80;101537.88;5235995;28;20467;-74
2022/06/17 02:24:12;;;;;;;2.67;1.15;;;;;;;12.07;86.76;101539.78;5229804;28;20408;-74
2022/06/17 02:26:44;;;;;;;2.75;1.52;;;;;;;11.78;87.24;101547.53;5242021;28;20028;-74
2022/06/17 02:29:15;;;;;;;3.47;1.25;;;;;;;11.60;89.77;101553.25;5241542;28;20035;-72
2022/06/17 02:31:47;;;;;;;3.40;1.40;;;;;;;11.55;88.46;101561.16;5246120;22;20075;-73
2022/06/17 02:34:19;;;;;;;4.50;1.20;;;;;;;11.47;90.49;101559.63;5222357;28;20085;-72
2022/06/17 02:37:01;;;;;;;2.17;1.10;;;;;;;11.61;89.38;101571.50;5229449;28;20028;-72
2022/06/17 02:39:33;;;;;;;3.03;1.20;;;;;;;11.44;87.97;101578.88;5223367;28;20032;-72
2022/06/17 02:42:04;;;;;;;3.80;1.20;;;;;;;11.62;88.71;101570.59;5225171;28;20021;-72
2022/06/17 02:44:40;;;;;;;7.07;1.40;;;;;;;11.63;88.59;101566.25;5220858;28;20021;-72
2022/06/17 02:47:11;;;;;;;2.40;1.27;;;;;;;11.28;90.66;101569.63;5213490;28;20083;-72
2022/06/17 02:49:42;;;;;;;2.83;1.15;;;;;;;11.33;89.07;101564.31;5219906;28;20016;-72
2022/06/17 02:52:18;;;;;;;14.18;1.63;;;;;;;10.97;91.22;101553.78;5220419;28;20024;-72
2022/06/17 02:54:54;;;;;;;4.88;1.58;;;;;;;10.75;93.85;101550.78;5221333;28;20397;-72
2022/06/17 02:57:28;;;;;;;4.40;1.23;;;;;;;10.60;95.03;101552.81;5220574;28;20033;-72
2022/06/17 03:00:12;;;;;;;11.63;1.48;;;;;;;10.90;92.95;101562.66;5209913;28;20076;-72
2022/06/17 03:02:49;;;;;;;2.75;1.20;;;;;;;10.86;91.96;101555.78;5214288;28;20035;-72
2022/06/17 03:05:42;;;;;;;3.08;1.00;;;;;;;10.67;94.29;101549.22;5220902;28;20432;-72
2022/06/17 03:08:34;;;;;;;2.60;1.20;;;;;;;10.67;95.13;101550.06;5206892;28;20052;-72
2022/06/17 03:11:07;;;;;;;5.25;1.30;;;;;;;10.62;95.10;101551.03;5216355;28;20028;-72
2022/06/17 03:13:40;;;;;;;3.33;1.20;;;;;;;10.64;95.20;101544.91;5220566;28;20029;-72
2022/06/17 03:16:13;;;;;;;3.95;1.20;;;;;;;10.89;93.75;101545.25;5213160;28;20029;-72
2022/06/17 03:18:47;;;;;;;3.45;1.05;;;;;;;10.93;91.98;101537.31;5220218;28;20025;-72
2022/06/17 03:21:23;;;;;;;4.28;1.30;;;;;;;10.46;93.79;101541.78;5220545;28;20188;-72
2022/06/17 03:24:04;;;;;;;2.05;1.25;;;;;;;10.31;98.61;101526.44;5220568;28;20021;-72
2022/06/17 03:26:43;;;;;;;2.40;1.20;;;;;;;10.39;98.57;101532.34;5211878;28;20061;-72
2022/06/17 03:29:16;;;;;;;3.03;1.30;;;;;;;10.61;98.15;101538.88;5201140;28;20482;-71
2022/06/17 03:31:54;;;;;;;3.55;1.30;;;;;;;10.81;94.94;101545.41;5196062;28;20086;-72
2022/06/17 03:34:34;;;;;;;2.20;1.30;;;;;;;10.72;96.29;101539.53;5224754;28;20565;-73
2022/06/17 03:37:15;;;;;;;2.55;1.30;;;;;;;10.84;97.53;101536.66;5224548;28;20367;-72
2022/06/17 03:39:57;;;;;;;4.88;1.27;;;;;;;10.92;97.14;101537.34;5201004;28;20029;-72
2022/06/17 03:43:10;;;;;;;3.33;1.60;;;;;;;10.94;97.97;101544.28;5223930;28;21469;-72
2022/06/17 03:46:02;;;;;;;5.95;1.73;;;;;;;11.16;97.93;101538.53;5224909;28;20522;-72
2022/06/17 03:49:01;;;;;;;4.28;1.90;;;;;;;11.13;96.61;101549.03;5223869;28;20025;-72
2022/06/17 03:51:35;;;;;;;5.40;1.98;;;;;;;11.03;98.84;101550.16;5215644;28;20037;-72
2022/06/17 03:54:12;;;;;;;4.28;1.95;;;;;;;11.27;97.39;101554.84;5224650;28;20110;-72
2022/06/17 03:56:48;;;;;;;4.80;1.75;;;;;;;11.36;97.33;101551.16;5210322;28;20032;-72
2022/06/17 03:59:23;;;;;;;3.47;1.80;;;;;;;11.67;93.87;101545.19;5212342;28;20032;-72
2022/06/17 04:02:10;;;;;;;5.25;1.73;;;;;;;11.19;97.84;101546.31;5217304;28;20029;-73
2022/06/17 04:04:44;;;;;;;6.55;2.13;;;;;;;11.43;98.35;101550.13;5204916;28;20033;-73
2022/06/17 04:07:15;;;;;;;4.03;1.90;;;;;;;11.48;96.75;101554.31;5205995;28;20532;-72
2022/06/17 04:09:47;;;;;;;4.07;1.80;;;;;;;11.62;98.58;101552.28;5209776;28;20026;-71
2022/06/17 04:12:25;;;;;;;2.65;1.42;;;;;;;11.69;96.56;101551.25;5188505;28;20029;-72
2022/06/17 04:15:17;;;;;;;2.30;1.52;;;;;;;11.99;94.52;101563.56;5212823;28;20389;-72
2022/06/17 04:17:48;;;;;;;2.97;1.67;;;;;;;11.98;93.85;101551.38;5190328;28;20026;-72
2022/06/17 04:20:47;;;;;;;4.38;1.95;;;;;;;11.65;97.60;101554.81;5193916;28;20027;-72
2022/06/17 04:23:32;;;;;;;3.80;1.83;;;;;;;11.54;99.53;101558.56;5198064;28;20022;-72
2022/06/17 04:26:02;;;;;;;3.38;1.60;;;;;;;11.67;98.83;101566.16;5190030;28;20115;-72
2022/06/17 04:28:45;;;;;;;7.80;1.90;;;;;;;11.78;100.00;101558.88;5205498;28;20514;-72
2022/06/17 04:31:20;;;;;;;3.45;1.85;;;;;;;11.76;100.00;101555.44;5209333;28;20044;-72
2022/06/17 04:33:57;;;;;;;3.90;2.10;;;;;;;12.04;100.00;101553.84;5223675;28;20104;-72
2022/06/17 04:36:41;;;;;;;3.70;2.00;;;;;;;12.36;100.00;101547.75;5221000;28;20025;-73
2022/06/17 04:39:24;;;;;;;3.38;1.80;;;;;;;12.52;100.00;101557.78;5216481;28;20082;-73
2022/06/17 04:41:58;;;;;;;4.22;2.17;;;;;;;13.24;96.95;101555.66;5223649;28;20433;-73
2022/06/17 04:44:29;;;;;;;4.90;1.95;;;;;;;13.79;94.91;101550.34;5222546;28;20044;-73
2022/06/17 04:47:05;;;;;;;5.47;1.77;;;;;;;16.36;83.21;101548.25;5223382;28;20367;-73
2022/06/17 04:49:41;;;;;;;2.95;1.60;;;;;;;18.24;75.70;101545.31;5223560;28;20028;-73
2022/06/17 04:52:34;;;;;;;5.07;1.55;;;;;;;19.97;69.89;101543.53;5215891;28;20025;-74
2022/06/17 04:55:11;;;;;;;3.22;1.40;;;;;;;22.45;62.47;101533.66;5222779;28;20025;-74
2022/06/17 04:57:42;;;;;;;3.95;1.60;;;;;;;21.39;68.40;101526.63;5210265;28;20064;-73
2022/06/17 05:00:19;;;;;;;4.22;1.67;;;;;;;21.41;66.75;101529.19;5211127;28;20032;-73
2022/06/17 05:02:49;;;;;;;3.40;1.70;;;;;;;20.52;69.64;101530.50;5220027;28;20500;-74
2022/06/17 05:05:27;;;;;;;4.40;1.73;;;;;;;22.71;64.38;101518.38;5223100;28;20037;-71
2022/06/17 05:07:59;;;;;;;2.83;1.58;;;;;;;21.97;64.59;101518.34;5222941;28;20033;-71
2022/06/17 05:10:35;;;;;;;3.53;1.73;;;;;;;23.72;59.79;101518.97;5201113;28;20214;-71
2022/06/17 05:13:10;;;;;;;3.92;1.70;;;;;;;22.94;61.97;101514.09;5206933;28;20024;-72
2022/06/17 05:15:41;;;;;;;;;;;;;;;23.31;60.83;101518.50;5216093;28;20394;-71
2022/06/17 05:18:11;;;;;;;3.35;1.40;;;;;;;23.42;61.14;101511.44;5222416;28;19913;-71
2022/06/17 05:20:42;;;;;;;4.85;1.80;;;;;;;24.10;61.09;101508.94;5204656;28;20504;-73
2022/06/17 05:23:16;;;;;;;3.05;1.50;;;;;;;26.19;55.96;101507.69;5195265;28;20520;-73
2022/06/17 05:25:49;;;;;;;3.05;1.70;;;;;;;25.73;57.87;101519.72;5207859;28;20487;-74
2022/06/17 05:28:21;;;;;;;4.38;1.60;;;;;;;26.15;56.37;101511.63;5206175;28;20662;-73
2022/06/17 05:30:55;;;;;;;7.38;2.00;;;;;;;25.24;57.72;101522.06;5212819;28;20021;-73
2022/06/17 05:33:25;;;;;;;5.43;2.05;;;;;;;25.50;56.62;101520.78;5222005;28;20100;-73
2022/06/17 05:35:56;;;;;;;3.90;1.67;;;;;;;25.93;55.95;101521.63;5216337;28;20538;-71
2022/06/17 05:38:26;;;;;;;3.75;1.95;;;;;;;25.90;56.57;101520.06;5195879;28;20576;-70
2022/06/17 05:40:57;;;;;;;3.92;1.90;;;;;;;24.90;57.69;101533.75;5203631;28;20048;-71
2022/06/17 05:43:27;;;;;;;7.10;2.20;;;;;;;24.65;59.84;101531.31;5203957;28;20035;-70
2022/06/17 05:45:58;;;;;;;4.47;2.10;;;;;;;24.72;59.09;101524.50;5199047;28;20045;-71
2022/06/17 05:48:28;;;;;;;6.63;2.13;;;;;;;24.47;60.14;101519.34;5221074;28;20736;-73
2022/06/17 05:50:58;;;;;;;6.53;2.43;;;;;;;23.31;61.73;101530.03;5220262;28;20493;-73
2022/06/17 05:53:29;;;;;;;7.20;2.30;;;;;;;21.60;64.07;101535.84;5222201;28;20301;-72
2022/06/17 05:55:59;;;;;;;5.68;2.45;;;;;;;21.83;64.36;101529.03;5217031;28;20023;-73
2022/06/17 05:58:29;;;;;;;4.82;2.25;;;;;;;22.14;65.03;101523.38;5209621;28;20034;-71
2022/06/17 06:01:00;;;;;;;5.03;2.50;;;;;;;21.73;65.96;101525.31;5215349;28;20470;-70
2022/06/17 06:03:30;;;;;;;6.00;2.70;;;;;;;22.07;64.07;101530.09;5222268;28;20041;-70
2022/06/17 06:06:01;;;;;;;5.93;2.28;;;;;;;22.89;62.26;101527.78;5222267;28;20028;-71
2022/06/17 06:08:31;;;;;;;5.20;2.33;;;;;;;23.19;62.84;101524.75;5203413;28;20013;-71
2022/06/17 06:11:06;;;;;;;5.20;2.50;;;;;;;22.39;64.83;101531.44;5221704;28;20017;-71
2022/06/17 06:13:37;;;;;;;6.63;2.50;;;;;;;22.93;62.68;101529.25;5221818;28;20154;-71
2022/06/17 06:16:08;;;;;;;5.25;2.35;;;;;;;22.81;64.14;101534.63;5221998;28;20067;-71
2022/06/17 06:18:39;;;;;;;4.65;2.33;;;;;;;23.66;60.43;101532.75;5216448;28;20396;-71
2022/06/17 06:21:09;;;;;;;5.15;1.98;;;;;;;23.89;60.19;101537.28;5214195;28;20028;-71
2022/06/17 06:23:44;;;;;;;4.75;2.30;;;;;;;23.21;62.05;101544.16;5201483;28;20151;-71
2022/06/17 06:26:18;;;;;;;4.82;2.20;;;;;;;23.87;59.78;101545.41;5212624;28;20057;-70
2022/06/17 06:28:49;;;;;;;6.35;2.30;;;;;;;23.58;59.77;101548.50;5211627;28;20141;-71
2022/06/17 06:31:25;;;;;;;6.72;2.60;;;;;;;23.95;59.13;101559.06;5211642;28;20533;-71
2022/06/17 06:33:55;;;;;;;4.47;2.15;;;;;;;23.37;59.84;101555.44;5216214;28;20017;-71
2022/06/17 06:36:26;;;;;;;4.80;2.13;;;;;;;23.28;61.65;101556.94;5213679;28;20028;-69
2022/06/17 06:38:56;;;;;;;5.55;1.95;;;;;;;23.87;60.56;101555.25;5197770;28;20032;-69
2022/06/17 06:41:27;;;;;;;7.85;1.85;;;;;;;25.44;57.26;101545.38;5208806;28;20044;-71
2022/06/17 06:43:57;;;;;;;4.75;2.00;;;;;;;24.64;57.10;101545.66;5215887;28;20036;-71
2022/06/17 06:46:31;;;;;;;6.47;1.83;;;;;;;24.70;55.14;101552.34;5195289;28;20087;-71
2022/06/17 06:49:01;;;;;;;4.35;1.80;;;;;;;25.11;55.34;101548.94;5194496;28;20021;-72
2022/06/17 06:51:32;;;;;;;3.80;1.60;;;;;;;26.01;54.42;101544.09;5217172;28;21200;-71
2022/06/17 06:54:03;;;;;;;5.18;1.92;;;;;;;25.09;54.20;101552.69;5212294;28;20550;-71
2022/06/17 06:56:34;;;;;;;4.63;1.70;;;;;;;24.32;55.11;101549.94;5196073;28;20119;-71
2022/06/17 06:59:04;;;;;;;8.75;2.00;;;;;;;24.62;55.49;101555.63;5198781;28;20121;-71
2022/06/17 07:01:34;;;;;;;5.30;1.90;;;;;;;24.20;55.72;101552.72;5198362;28;20106;-71
2022/06/17 07:04:07;;;;;;;5.90;1.90;;;;;;;24.64;55.50;101547.47;5194044;28;20033;-71
2022/06/17 07:06:38;;;;;;;6.22;1.70;;;;;;;24.89;55.40;101548.97;5204047;28;20502;-71
2022/06/17 07:09:12;;;;;;;3.10;1.70;;;;;;;23.72;55.94;101557.19;5204166;28;20108;-71
2022/06/17 07:11:43;;;;;;;5.67;1.90;;;;;;;24.37;55.58;101547.75;5202295;28;20055;-71
2022/06/17 07:14:13;;;;;;;3.75;1.50;;;;;;;26.25;53.76;101547.41;5180824;28;20045;-72
2022/06/17 07:16:43;;;;;;;4.45;1.70;;;;;;;27.34;51.22;101543.06;5202826;28;20041;-71
2022/06/17 07:19:16;;;;;;;6.20;1.70;;;;;;;27.66;50.82;101543.69;5212064;28;20029;-71
2022/06/17 07:21:48;;;;;;;4.18;1.50;;;;;;;26.61;50.71;101541.59;5201890;28;20024;-71
2022/06/17 07:24:19;;;;;;;3.80;1.83;;;;;;;27.76;49.93;101543.72;5220127;28;20119;-71
2022/06/17 07:26:49;;;;;;;5.93;1.60;;;;;;;27.02;51.48;101552.22;5212791;28;20100;-73
2022/06/17 07:29:19;;;;;;;4.18;1.63;;;;;;;26.80;51.53;101550.56;5208064;28;20398;-72
2022/06/17 07:31:50;;;;;;;3.50;1.60;;;;;;;27.98;49.33;101544.25;5208383;28;20582;-72
2022/06/17 07:34:20;;;;;;;4.70;1.67;;;;;;;27.55;49.13;101534.88;5212376;28;20036;-72
2022/06/17 07:39:54;;;;;;;4.10;1.42;;;;;;;27.72;48.78;101543.16;5208341;28;20041;-72
2022/06/17 07:42:37;;;;;;;2.67;1.20;;;;;;;29.51;47.86;101529.38;5220443;28;20048;-72
2022/06/17 07:45:17;;;;;;;4.40;1.35;;;;;;;29.51;45.93;101532.06;5220726;28;20443;-72
2022/06/17 07:47:51;;;;;;;3.53;1.70;;;;;;;28.83;47.72;101537.91;5209752;28;20111;-72
2022/06/17 07:50:26;;;;;;;4.35;1.40;;;;;;;29.01;48.52;101537.00;5220138;28;20024;-73
2022/06/17 07:52:57;;;;;;;3.67;1.50;;;;;;;28.62;48.59;101539.13;5220569;28;20093;-71
2022/06/17 07:55:27;;;;;;;6.07;1.67;;;;;;;27.94;49.25;101550.94;5215435;28;20433;-72
2022/06/17 07:57:57;;;;;;;3.75;1.42;;;;;;;29.21;46.74;101543.16;5208477;28;20029;-72
2022/06/17 08:00:37;;;;;;;3.97;1.58;;;;;;;29.60;47.42;101533.84;5210208;28;20511;-72
2022/06/17 08:03:09;;;;;;;3.85;1.38;;;;;;;28.85;48.48;101534.06;5213209;28;20402;-72
2022/06/17 08:05:48;;;;;;;2.42;1.30;;;;;;;30.45;44.64;101524.16;5209283;28;20024;-73
2022/06/17 08:08:23;;;;;;;2.85;1.33;;;;;;;30.67;46.18;101529.06;5198154;28;20072;-72
2022/06/17 08:10:56;;;;;;;6.28;1.52;;;;;;;31.44;45.01;101514.38;5219950;28;20136;-72
2022/06/17 08:13:28;;;;;;;3.60;1.60;;;;;;;31.25;44.32;101515.53;5209010;28;20056;-72
2022/06/17 08:16:01;;;;;;;3.10;1.42;;;;;;;30.00;46.39;101515.34;5200233;28;20123;-72
2022/06/17 08:18:32;;;;;;;2.70;1.33;;;;;;;29.42;47.17;101514.91;5219363;28;20050;-72
2022/06/17 08:21:03;;;;;;;6.15;2.03;;;;;;;29.31;47.10;101514.28;5223248;28;20108;-72
2022/06/17 08:23:33;;;;;;;3.05;1.40;;;;;;;30.57;45.59;101506.72;5224059;28;20176;-72
2022/06/17 08:26:04;;;;;;;4.40;1.50;;;;;;;30.12;46.14;101514.13;5223696;28;20031;-72
2022/06/17 08:28:34;;;;;;;2.90;1.27;;;;;;;30.21;46.52;101514.03;5216749;28;20025;-72
2022/06/17 08:33:47;;;;;;;5.63;1.75;;;;;;;30.03;46.37;101510.53;5210138;28;20042;-74
2022/06/17 08:36:21;;;;;;;7.03;1.47;;;;;;;31.79;44.90;101512.28;5211218;28;20406;-74
2022/06/17 08:38:57;;;;;;;3.77;1.13;;;;;;;31.78;44.31;101505.19;5213018;28;20284;-75
2022/06/17 08:41:30;;;;;;;4.90;1.17;;;;;;;31.59;45.45;101510.00;5211340;28;20049;-74
2022/06/17 08:44:19;;;;;;;3.40;1.35;;;;;;;31.92;43.93;101501.81;5214064;28;20030;-75
2022/06/17 08:47:08;;;;;;;3.97;1.10;;;;;;;32.46;43.48;101490.28;5210531;28;20464;-75
2022/06/17 08:50:14;;;;;;;3.60;1.20;;;;;;;30.18;46.65;101497.31;5209531;28;20017;-75
2022/06/17 08:53:09;;;;;;;2.55;1.20;;;;;;;31.07;45.00;101495.84;5213480;28;20375;-76
2022/06/17 08:55:59;;;;;;;3.47;1.25;;;;;;;30.25;45.97;101490.31;5227714;28;20024;-77
2022/06/17 08:58:41;;;;;;;4.50;1.27;;;;;;;31.69;44.98;101489.13;5224792;28;20382;-75
2022/06/17 09:01:42;;;;;;;2.85;1.10;;;;;;;29.16;48.50;101491.56;5189265;28;20025;-75
2022/06/17 09:04:33;;;;;;;4.20;1.30;;;;;;;30.16;45.62;101491.22;5168111;28;20030;-76
2022/06/17 09:07:09;;;;;;;2.78;1.20;;;;;;;30.92;45.29;101488.50;5193257;28;20104;-76
2022/06/17 09:09:58;;;;;;;4.05;1.00;;;;;;;32.92;43.73;101492.16;5206665;28;20075;-75
2022/06/17 09:12:46;;;;;;;2.65;1.10;;;;;;;30.17;46.01;101495.63;5206587;28;20025;-75
2022/06/17 09:15:39;;;;;;;3.05;0.90;;;;;;;31.26;45.25;101490.19;5190125;28;20091;-75
2022/06/17 09:18:25;;;;;;;2.22;1.00;;;;;;;29.58;46.81;101484.66;5206321;28;20026;-75
2022/06/17 09:21:09;;;;;;;3.42;1.20;;;;;;;30.35;45.46;101486.50;5189166;28;20033;-76
2022/06/17 09:23:40;;;;;;;3.30;1.13;;;;;;;28.75;47.69;101487.47;5206802;28;20087;-75
2022/06/17 09:26:24;;;;;;;3.85;1.30;;;;;;;28.75;48.20;101487.47;5210142;28;20038;-74
2022/06/17 09:29:00;;;;;;;5.78;1.10;;;;;;;27.96;49.16;101487.09;5206379;28;20013;-75
2022/06/17 09:31:38;;;;;;;2.13;1.20;;;;;;;27.78;49.91;101488.81;5205283;28;20025;-75
2022/06/17 09:34:17;;;;;;;3.05;1.00;;;;;;;28.85;47.80;101482.06;5185893;28;20496;-75
2022/06/17 09:37:03;;;;;;;2.70;1.10;;;;;;;28.51;48.70;101472.84;5199377;28;20108;-76
2022/06/17 09:39:41;;;;;;;;;;;;;;;29.12;46.89;101463.22;5206900;28;20442;-75
2022/06/17 09:42:32;;;;;;;2.58;1.15;;;;;;;29.64;48.44;101466.00;5210597;28;20460;-75
2022/06/17 09:45:09;;;;;;;1.95;0.95;;;;;;;28.83;48.22;101455.28;5206003;28;20030;-76
2022/06/17 09:47:48;;;;;;;2.17;0.80;;;;;;;28.46;49.54;101461.69;5214097;28;20032;-75
2022/06/17 09:50:26;;;;;;;3.15;1.13;;;;;;;30.44;46.16;101455.81;5190044;28;20506;-76
2022/06/17 09:53:11;;;;;;;2.50;0.90;;;;;;;29.18;49.17;101457.22;5209679;28;20474;-75
2022/06/17 09:55:47;;;;;;;5.30;1.10;;;;;;;29.01;50.48;101453.53;5205481;28;20025;-75
2022/06/17 09:58:24;;;;;;;1.50;0.77;;;;;;;29.08;47.92;101456.47;5212489;28;20059;-76
2022/06/17 10:00:56;;;;;;;2.53;0.90;;;;;;;29.08;48.03;101468.06;5211353;28;20033;-75
2022/06/17 10:03:31;;;;;;;2.35;0.90;;;;;;;29.19;46.96;101464.31;5188024;28;20030;-76
2022/06/17 10:06:19;;;;;;;3.33;1.23;;;;;;;28.83;48.57;101457.13;5211012;28;20024;-74
2022/06/17 10:09:12;;;;;;;1.30;0.70;;;;;;;28.08;48.59;101461.75;5203921;28;20087;-75
2022/06/17 10:11:59;;;;;;;1.70;0.80;;;;;;;28.81;49.14;101459.13;5217152;28;20032;-75
2022/06/17 10:14:53;;;;;;;5.53;1.10;;;;;;;28.15;47.64;101464.72;5219701;28;20564;-74
2022/06/17 10:20:31;;;;;;;2.88;0.70;;;;;;;28.47;46.52;101458.00;5223563;28;20040;-75
2022/06/17 10:23:13;;;;;;;2.00;0.80;;;;;;;27.75;47.93;101466.78;5191434;28;20020;-75
2022/06/17 10:26:03;;;;;;;3.15;0.90;;;;;;;28.62;47.88;101459.22;5213014;28;20075;-76
2022/06/17 10:29:10;;;;;;;2.20;0.77;;;;;;;27.95;47.64;101469.28;5204837;28;20032;-75
2022/06/17 10:31:47;;;;;;;2.35;0.90;;;;;;;27.96;48.29;101462.06;5209158;28;20359;-75
2022/06/17 10:34:32;;;;;;;2.45;1.00;;;;;;;27.62;48.84;101469.69;5209307;28;20102;-73
2022/06/17 10:37:05;;;;;;;1.55;0.80;;;;;;;27.30;49.65;101470.94;5205428;28;20026;-75
2022/06/17 10:39:36;;;;;;;1.30;0.90;;;;;;;27.87;50.12;101461.09;5204562;28;20064;-74
2022/06/17 10:42:09;;;;;;;2.00;0.80;;;;;;;28.13;48.93;101469.41;5204476;28;20438;-73
2022/06/17 10:44:43;;;;;;;3.15;0.95;;;;;;;28.03;48.93;101476.63;5209223;28;20069;-74
2022/06/17 10:47:19;;;;;;;3.20;1.02;;;;;;;27.64;49.34;101477.63;5216562;28;20187;-75
2022/06/17 10:50:03;;;;;;;3.22;1.00;;;;;;;27.75;48.26;101478.34;5206868;28;20025;-75
2022/06/17 10:52:40;;;;;;;2.60;0.90;;;;;;;27.65;48.69;101477.47;5204692;28;20029;-75
2022/06/17 10:55:43;;;;;;;3.88;0.95;;;;;;;27.10;49.78;101470.06;5187101;28;20055;-75
2022/06/17 10:58:21;;;;;;;1.98;0.90;;;;;;;27.79;49.03;101462.81;5203111;28;20108;-75
2022/06/17 11:01:01;;;;;;;1.42;0.80;;;;;;;27.95;48.91;101466.59;5199980;28;20032;-75
2022/06/17 11:03:34;;;;;;;3.78;0.80;;;;;;;28.21;49.60;101469.50;5204660;28;20021;-75
2022/06/17 11:06:22;;;;;;;2.38;1.05;;;;;;;28.04;50.22;101470.25;5204535;28;20017;-73
2022/06/17 11:08:58;;;;;;;4.55;1.08;;;;;;;27.36;49.69;101476.63;5207888;28;20091;-74
2022/06/17 11:14:44;;;;;;;3.33;1.10;;;;;;;28.49;46.30;101465.94;5224904;28;20044;-75
2022/06/17 11:17:26;;;;;;;1.52;0.77;;;;;;;28.38;47.91;101452.66;5223369;28;20304;-74
2022/06/17 11:20:00;;;;;;;2.08;1.00;;;;;;;27.80;48.51;101457.25;5206640;28;20029;-75
2022/06/17 11:22:37;;;;;;;1.55;0.80;;;;;;;27.05;49.54;101456.16;5216879;28;20348;-75
2022/06/17 11:25:25;;;;;;;3.03;1.00;;;;;;;26.90;51.31;101462.91;5220560;28;20044;-75
2022/06/17 11:27:59;;;;;;;1.85;0.70;;;;;;;26.92;51.70;101452.06;5224647;28;20032;-74
2022/06/17 11:30:31;;;;;;;1.50;0.70;;;;;;;27.34;53.58;101448.19;5205614;28;20533;-75
2022/06/17 11:33:20;;;;;;;2.22;1.15;;;;;;;27.91;52.19;101438.31;5207328;28;20621;-76
2022/06/17 11:36:01;;;;;;;2.58;1.17;;;;;;;27.71;51.00;101442.00;5201585;28;20039;-75
2022/06/17 11:38:33;;;;;;;2.88;1.20;;;;;;;27.84;51.69;101436.34;5203700;28;20037;-75
2022/06/17 11:41:04;;;;;;;1.67;0.90;;;;;;;27.04;52.92;101435.69;5216017;28;20542;-75
2022/06/17 11:43:41;;;;;;;1.88;1.00;;;;;;;27.19;52.62;101426.28;5206153;28;20029;-75
2022/06/17 11:46:18;;;;;;;1.10;0.80;;;;;;;27.13;51.62;101426.81;5201461;28;20074;-73
2022/06/17 11:48:54;;;;;;;3.58;0.80;;;;;;;27.22;51.19;101426.00;5203946;28;20087;-75
2022/06/17 11:51:32;;;;;;;2.22;1.38;;;;;;;27.06;52.97;101417.59;5206945;28;20032;-74
2022/06/17 11:54:18;;;;;;;1.95;0.98;;;;;;;26.96;51.22;101414.03;5222768;28;20079;-76
2022/06/17 11:56:51;;;;;;;4.18;0.88;;;;;;;27.08;51.09;101415.63;5190743;28;20104;-74
2022/06/17 11:59:25;;;;;;;2.25;1.00;;;;;;;26.99;52.77;101412.91;5214230;28;20033;-75
2022/06/17 12:01:55;;;;;;;1.73;0.90;;;;;;;26.76;51.13;101406.09;5185382;28;20021;-74
2022/06/17 12:04:46;;;;;;;2.30;1.03;;;;;;;26.65;51.49;101402.69;5208258;28;20026;-75
2022/06/17 12:07:38;;;;;;;1.50;0.93;;;;;;;27.29;50.82;101394.06;5207665;28;20355;-75
2022/06/17 12:10:09;;;;;;;1.40;0.90;;;;;;;27.38;52.63;101387.81;5211394;28;20498;-74
2022/06/17 12:12:40;;;;;;;5.17;1.10;;;;;;;27.53;50.96;101384.59;5223189;28;20063;-75
2022/06/17 12:15:24;;;;;;;3.67;0.90;;;;;;;27.52;54.18;101387.41;5205936;28;20043;-75
2022/06/17 12:17:58;;;;;;;2.55;1.00;;;;;;;27.22;53.31;101372.28;5222929;28;20498;-75
2022/06/17 12:20:52;;;;;;;1.83;0.88;;;;;;;27.17;51.73;101377.25;5227675;28;20107;-75
2022/06/17 12:23:48;;;;;;;2.65;0.90;;;;;;;26.59;52.39;101377.25;5204321;28;20036;-75
2022/06/17 12:26:29;;;;;;;3.35;0.80;;;;;;;27.09;52.18;101371.69;5211300;28;20032;-74